METAR Analyzer

一覧表示

Hello, Guest. (Login)

LTBA/ISL  -  イスタンブール・アタテュルク

観測日時
2021-11-28 20:20 (UTC) (14分前)
気温
17
露点
11
湿数
6
相対湿度
67.7%
QNH
1008hPa
推定現地気圧
1002.0hPa
推定海面気圧
1007.9hPa
体感温度
7.5
(無風時)
18.1
HI
16.5
気温前日比
+1
体感温度前日比
-1.8
HI前日比
+0.8
水平視程
>10000m
鉛直視程
データなし
雲底高度
No dense clouds
V/I
VMC (VFR)
RVR
No RVR data
卓越風
13kt from 240°
ガスト
No gust
降水
報告なし
その他の天気
報告なし
報告なし

LTBA 282020Z 24013KT CAVOK 17/11 Q1008 NOSIG

LTFM/IST  -  イスタンブール (新)

観測日時
2021-11-28 20:20 (UTC) (14分前)
気温
16
露点
9
湿数
7
相対湿度
63.1%
QNH
1006hPa
推定現地気圧
994.2hPa
推定海面気圧
1005.9hPa
体感温度
5
(無風時)
17.2
HI
15.3
気温前日比
-1
体感温度前日比
-1.3
HI前日比
-1.2
水平視程
>10000m
鉛直視程
データなし
雲底高度
No dense clouds
V/I
VMC (VFR)
RVR
No RVR data
卓越風
20kt from 200°
ガスト
No gust
降水
報告なし
その他の天気
報告なし
報告なし

LTFM 282020Z 20020KT CAVOK 16/09 Q1006 NOSIG

5.1msec